EPZG/IEG METAR and TAF weather

Enter ICAO airport designator
Station Type Date Time Source
EPZG METAR 2019/04/19 22:00 UTC NOAA

EPZG 192200Z 00000KT CAVOK 06/01 Q1032


Station Type Date Time Source
EPZG Decoded METAR 2019/04/19 22:00 UTC NOAA

Zielona Gora, Poland (EPZG) 51-56N 015-32E 192M
Apr 19, 2019 - 06:00 PM EDT / 2019.04.19 2200 UTC
Wind: Calm:0
Visibility: greater than 7 mile(s):0
Temperature: 42 F (6 C)
Dew Point: 33 F (1 C)
Relative Humidity: 70%
Pressure (altimeter): 30.47 in. Hg (1032 hPa)
ob: EPZG 192200Z 00000KT CAVOK 06/01 Q1032
cycle: 22

Station Type Date Time Source
EPZG TAF 2012/06/28 21:49 UTC NOAA

TAF EPZG 282000Z 2821/2906 VRB02KT CAVOK
TEMPO 2823/2904 5000 BR PROB30 2900/2904 1500 BR BKN005

Example: see airport list